createdAt,value
2023-03-30T00:00:57.664Z,100414.47
2023-03-30T00:03:27.477Z,100413.59
2023-03-30T00:05:58.615Z,100405.88
2023-03-30T00:08:29.390Z,100391.63
2023-03-30T00:11:04.241Z,100390.72
2023-03-30T00:13:33.303Z,100370.53
2023-03-30T00:16:01.250Z,100364.09
2023-03-30T00:18:29.999Z,100358.09
2023-03-30T00:20:58.762Z,100369.91
2023-03-30T00:23:26.192Z,100381.09
2023-03-30T00:25:53.460Z,100374.72
2023-03-30T00:28:20.710Z,100347.53
2023-03-30T00:30:48.726Z,100337.41
2023-03-30T00:33:16.267Z,100335.97
2023-03-30T00:35:43.510Z,100340.63
2023-03-30T00:38:10.947Z,100343.69
2023-03-30T00:40:38.432Z,100357.31
2023-03-30T00:43:11.138Z,100350.56
2023-03-30T00:45:38.474Z,100354.25
2023-03-30T00:48:15.316Z,100347.94
2023-03-30T00:50:45.894Z,100337.38
2023-03-30T00:53:17.254Z,100360.56
2023-03-30T00:55:46.747Z,100372.69
2023-03-30T00:58:15.644Z,100360.97
2023-03-30T01:00:44.042Z,100362.16
2023-03-30T01:03:17.595Z,100345.97
2023-03-30T01:05:45.236Z,100346.19
2023-03-30T01:08:16.651Z,100348.63
2023-03-30T01:10:45.097Z,100342.00
2023-03-30T01:13:13.579Z,100345.59
2023-03-30T01:15:55.239Z,100353.34
2023-03-30T01:18:33.178Z,100354.84
2023-03-30T01:21:17.737Z,100359.00
2023-03-30T01:23:47.058Z,100342.66
2023-03-30T01:26:34.765Z,100346.47
2023-03-30T01:29:16.464Z,100347.19
2023-03-30T01:32:11.493Z,100345.53
2023-03-30T01:34:59.663Z,100351.66
2023-03-30T01:38:08.186Z,100369.13
2023-03-30T01:40:50.125Z,100382.09
2023-03-30T01:44:00.882Z,100383.72
2023-03-30T01:46:31.100Z,100376.09
2023-03-30T01:49:22.189Z,100362.31
2023-03-30T01:52:01.874Z,100376.16
2023-03-30T01:54:37.058Z,100370.13
2023-03-30T01:57:15.873Z,100369.59
2023-03-30T01:59:56.555Z,100369.38
2023-03-30T02:02:28.448Z,100366.59
2023-03-30T02:04:57.788Z,100337.69
2023-03-30T02:07:31.402Z,100335.38
2023-03-30T02:10:03.023Z,100350.91
2023-03-30T02:12:31.015Z,100364.53
2023-03-30T02:15:04.701Z,100364.31
2023-03-30T02:17:32.079Z,100370.16
2023-03-30T02:20:00.513Z,100383.91
2023-03-30T02:22:30.679Z,100398.47
2023-03-30T02:25:00.402Z,100400.97
2023-03-30T02:27:27.863Z,100387.22
2023-03-30T02:29:56.427Z,100381.75
2023-03-30T02:32:29.290Z,100383.03
2023-03-30T02:34:57.049Z,100396.56
2023-03-30T02:37:32.639Z,100414.13
2023-03-30T02:40:05.884Z,100414.59
2023-03-30T02:42:45.485Z,100419.34
2023-03-30T02:45:21.609Z,100424.22
2023-03-30T02:48:02.110Z,100429.88
2023-03-30T02:50:55.474Z,100414.69
2023-03-30T02:53:45.809Z,100425.81
2023-03-30T02:56:33.942Z,100425.81
2023-03-30T02:59:17.143Z,100427.03
2023-03-30T03:01:58.290Z,100423.88
2023-03-30T03:04:28.536Z,100431.69
2023-03-30T03:07:20.841Z,100421.44
2023-03-30T03:09:48.327Z,100414.78
2023-03-30T03:12:15.878Z,100414.28
2023-03-30T03:14:43.242Z,100419.94
2023-03-30T03:17:13.595Z,100417.56
2023-03-30T03:19:44.635Z,100407.19
2023-03-30T03:22:12.410Z,100409.34
2023-03-30T03:24:40.779Z,100408.63
2023-03-30T03:27:34.361Z,100405.22
2023-03-30T03:30:21.887Z,100416.53
2023-03-30T03:32:59.606Z,100419.81
2023-03-30T03:35:29.995Z,100426.91
2023-03-30T03:37:58.839Z,100422.22
2023-03-30T03:40:26.325Z,100416.88
2023-03-30T03:42:54.410Z,100424.34
2023-03-30T03:45:21.606Z,100429.44
2023-03-30T03:47:57.878Z,100436.72
2023-03-30T03:50:37.084Z,100433.50
2023-03-30T03:53:04.705Z,100432.59
2023-03-30T03:55:34.801Z,100418.78
2023-03-30T03:58:04.442Z,100426.19
2023-03-30T04:00:32.070Z,100437.09
2023-03-30T04:02:59.550Z,100433.34
2023-03-30T04:05:26.863Z,100436.59
2023-03-30T04:07:54.146Z,100441.38
2023-03-30T04:10:21.494Z,100443.09
2023-03-30T04:13:04.446Z,100430.66
2023-03-30T04:15:50.474Z,100423.41
2023-03-30T04:18:34.765Z,100419.59
2023-03-30T04:21:31.937Z,100423.22
2023-03-30T04:24:14.681Z,100414.06
2023-03-30T04:26:54.080Z,100415.41
2023-03-30T04:29:40.799Z,100425.78
2023-03-30T04:32:26.517Z,100422.81
2023-03-30T04:35:09.248Z,100429.53
2023-03-30T04:38:00.523Z,100433.00
2023-03-30T04:41:06.594Z,100420.34
2023-03-30T04:43:48.809Z,100417.72
2023-03-30T04:46:35.347Z,100426.25
2023-03-30T04:49:25.376Z,100438.16
2023-03-30T04:52:11.993Z,100439.44
2023-03-30T04:54:59.989Z,100437.31
2023-03-30T04:57:46.589Z,100447.41
2023-03-30T05:00:34.899Z,100444.28
2023-03-30T05:03:23.912Z,100446.94
2023-03-30T05:06:18.227Z,100445.44
2023-03-30T05:09:09.754Z,100454.31
2023-03-30T05:12:04.638Z,100461.16
2023-03-30T05:14:40.698Z,100461.63
2023-03-30T05:17:34.122Z,100479.41
2023-03-30T05:20:18.771Z,100480.66
2023-03-30T05:23:04.660Z,100487.59
2023-03-30T05:25:51.142Z,100487.69
2023-03-30T05:28:37.008Z,100490.34
2023-03-30T05:31:27.925Z,100501.31
2023-03-30T05:34:16.646Z,100507.31
2023-03-30T05:36:54.144Z,100511.16
2023-03-30T05:39:40.676Z,100505.25
2023-03-30T05:42:27.642Z,100509.84
2023-03-30T05:45:04.706Z,100513.91
2023-03-30T05:47:54.501Z,100503.06
2023-03-30T05:50:22.654Z,100508.84
2023-03-30T05:52:53.882Z,100513.69
2023-03-30T05:55:45.054Z,100517.06
2023-03-30T05:58:48.014Z,100523.06
2023-03-30T06:01:34.106Z,100526.88
2023-03-30T06:04:03.301Z,100537.19
2023-03-30T06:06:31.572Z,100529.09
2023-03-30T06:08:59.737Z,100544.91
2023-03-30T06:11:28.311Z,100546.63
2023-03-30T06:14:04.770Z,100546.63
2023-03-30T06:16:32.187Z,100548.97
2023-03-30T06:19:00.686Z,100548.50
2023-03-30T06:21:28.550Z,100553.81
2023-03-30T06:24:20.137Z,100556.81
2023-03-30T06:26:49.435Z,100552.19
2023-03-30T06:29:17.094Z,100542.50
2023-03-30T06:31:44.486Z,100551.84
2023-03-30T06:34:34.761Z,100548.38
2023-03-30T06:37:02.906Z,100557.06
2023-03-30T06:39:30.239Z,100562.94
2023-03-30T06:41:57.662Z,100558.88
2023-03-30T06:44:35.321Z,100563.06
2023-03-30T06:47:09.765Z,100572.28
2023-03-30T06:49:37.421Z,100587.88
2023-03-30T06:52:34.030Z,100600.81
2023-03-30T06:55:01.573Z,100595.38
2023-03-30T06:57:29.106Z,100601.41
2023-03-30T06:59:56.819Z,100612.72
2023-03-30T07:02:33.782Z,100614.25
2023-03-30T07:05:01.294Z,100606.75
2023-03-30T07:07:39.136Z,100604.09
2023-03-30T07:10:10.363Z,100621.88
2023-03-30T07:12:38.542Z,100614.03
2023-03-30T07:15:08.019Z,100616.25
2023-03-30T07:17:36.964Z,100613.78
2023-03-30T07:20:06.431Z,100621.94
2023-03-30T07:22:36.012Z,100631.38
2023-03-30T07:25:04.671Z,100624.91
2023-03-30T07:27:31.883Z,100628.25
2023-03-30T07:30:10.392Z,100638.44
2023-03-30T07:32:47.089Z,100627.03
2023-03-30T07:35:14.489Z,100638.44
2023-03-30T07:37:41.941Z,100636.56
2023-03-30T07:40:10.151Z,100638.81
2023-03-30T07:42:38.824Z,100642.03
2023-03-30T07:45:06.821Z,100634.00
2023-03-30T07:47:34.290Z,100650.56
2023-03-30T07:50:02.150Z,100646.31
2023-03-30T07:52:30.357Z,100641.59
2023-03-30T07:55:01.746Z,100645.38
2023-03-30T07:57:39.049Z,100655.38
2023-03-30T08:00:09.304Z,100660.69
2023-03-30T08:03:02.686Z,100672.53
2023-03-30T08:05:30.553Z,100663.81
2023-03-30T08:08:13.974Z,100663.06
2023-03-30T08:10:41.427Z,100671.72
2023-03-30T08:13:08.743Z,100664.38
2023-03-30T08:15:36.042Z,100674.34
2023-03-30T08:18:06.816Z,100680.34
2023-03-30T08:20:36.478Z,100681.47
2023-03-30T08:23:05.203Z,100688.66
2023-03-30T08:25:33.071Z,100685.50
2023-03-30T08:28:00.842Z,100691.25
2023-03-30T08:30:28.684Z,100694.88
2023-03-30T08:32:56.077Z,100698.47
2023-03-30T08:35:23.651Z,100692.56
2023-03-30T08:37:51.193Z,100684.53
2023-03-30T08:40:19.345Z,100692.94
2023-03-30T08:42:52.709Z,100701.41
2023-03-30T08:45:20.065Z,100706.66
2023-03-30T08:47:50.102Z,100715.22
2023-03-30T08:50:22.102Z,100713.22
2023-03-30T08:52:51.552Z,100707.91
2023-03-30T08:55:24.504Z,100714.91
2023-03-30T08:57:59.589Z,100718.16
2023-03-30T09:00:37.156Z,100713.47
2023-03-30T09:03:30.138Z,100713.69
2023-03-30T09:06:56.278Z,100719.31
2023-03-30T09:09:26.207Z,100727.75
2023-03-30T09:12:22.443Z,100726.13
2023-03-30T09:14:58.969Z,100723.75
2023-03-30T09:17:37.764Z,100723.16
2023-03-30T09:20:21.421Z,100734.22
2023-03-30T09:22:49.383Z,100734.22
2023-03-30T09:25:26.426Z,100731.59
2023-03-30T09:28:10.315Z,100733.59
2023-03-30T09:31:02.827Z,100721.50
2023-03-30T09:33:42.925Z,100738.53
2023-03-30T09:36:18.751Z,100742.72
2023-03-30T09:38:46.406Z,100737.22
2023-03-30T09:41:41.726Z,100737.53
2023-03-30T09:44:19.111Z,100737.41
2023-03-30T09:46:46.928Z,100735.63
2023-03-30T09:49:15.948Z,100745.16
2023-03-30T09:51:55.187Z,100742.16
2023-03-30T09:54:23.289Z,100742.59
2023-03-30T09:56:54.176Z,100742.16
2023-03-30T09:59:26.008Z,100742.69
2023-03-30T10:01:53.340Z,100743.75
2023-03-30T10:04:20.692Z,100749.44
2023-03-30T10:06:49.976Z,100748.75
2023-03-30T10:09:21.904Z,100751.53
2023-03-30T10:11:51.087Z,100762.25
2023-03-30T10:14:36.807Z,100760.13
2023-03-30T10:17:04.799Z,100751.50
2023-03-30T10:19:36.974Z,100764.19
2023-03-30T10:22:17.093Z,100747.66
2023-03-30T10:24:57.396Z,100751.44
2023-03-30T10:27:33.997Z,100747.84
2023-03-30T10:30:10.721Z,100743.28
2023-03-30T10:32:38.261Z,100749.13
2023-03-30T10:35:09.101Z,100750.09
2023-03-30T10:37:42.694Z,100751.06
2023-03-30T10:40:18.656Z,100748.78
2023-03-30T10:42:47.238Z,100745.97
2023-03-30T10:45:18.310Z,100736.47
2023-03-30T10:47:51.955Z,100736.47
2023-03-30T10:50:32.648Z,100729.47
2023-03-30T10:53:27.856Z,100717.00
2023-03-30T10:56:15.691Z,100719.22
2023-03-30T10:58:55.364Z,100716.69
2023-03-30T11:01:56.364Z,100727.38
2023-03-30T11:04:32.053Z,100716.38
2023-03-30T11:07:00.487Z,100712.44
2023-03-30T11:09:33.111Z,100720.97
2023-03-30T11:12:06.076Z,100741.09
2023-03-30T11:14:56.579Z,100718.25
2023-03-30T11:17:40.901Z,100723.81
2023-03-30T11:20:23.694Z,100721.84
2023-03-30T11:23:05.918Z,100725.03
2023-03-30T11:25:36.993Z,100734.81
2023-03-30T11:28:50.479Z,100721.44
2023-03-30T11:31:27.051Z,100724.34
2023-03-30T11:34:00.865Z,100719.38
2023-03-30T11:36:36.377Z,100729.44
2023-03-30T11:39:07.372Z,100727.13
2023-03-30T11:41:57.385Z,100722.53
2023-03-30T11:44:24.632Z,100717.78
2023-03-30T11:47:00.912Z,100719.34
2023-03-30T11:49:34.073Z,100729.88
2023-03-30T11:52:01.350Z,100727.81
2023-03-30T11:55:02.489Z,100732.31
2023-03-30T11:57:41.021Z,100728.00
2023-03-30T12:00:11.389Z,100740.84
2023-03-30T12:03:20.513Z,100749.06
2023-03-30T12:06:31.980Z,100739.88
2023-03-30T12:08:59.116Z,100733.16
2023-03-30T12:11:42.302Z,100722.28
2023-03-30T12:14:41.284Z,100717.94
2023-03-30T12:17:30.380Z,100706.75
2023-03-30T12:20:09.855Z,100704.41
2023-03-30T12:22:47.923Z,100709.84
2023-03-30T12:25:24.958Z,100714.47
2023-03-30T12:28:13.955Z,100699.34
2023-03-30T12:30:48.518Z,100698.22
2023-03-30T12:33:27.608Z,100690.31
2023-03-30T12:36:01.068Z,100693.03
2023-03-30T12:38:38.459Z,100685.13
2023-03-30T12:41:14.484Z,100688.59
2023-03-30T12:44:09.104Z,100670.25
2023-03-30T12:46:58.313Z,100678.41
2023-03-30T12:49:25.934Z,100670.91
2023-03-30T12:52:04.931Z,100678.81
2023-03-30T12:54:51.022Z,100678.91
2023-03-30T12:57:18.420Z,100674.84
2023-03-30T12:59:51.700Z,100681.81
2023-03-30T13:02:33.020Z,100672.06
2023-03-30T13:05:00.672Z,100666.75
2023-03-30T13:07:29.738Z,100656.56
2023-03-30T13:10:01.525Z,100659.75
2023-03-30T13:12:40.321Z,100662.91
2023-03-30T13:15:16.841Z,100639.31
2023-03-30T13:18:09.625Z,100655.38
2023-03-30T13:20:56.958Z,100668.66
2023-03-30T13:23:27.409Z,100655.84
2023-03-30T13:25:57.703Z,100634.00
2023-03-30T13:29:03.867Z,100650.03
2023-03-30T13:31:49.384Z,100638.44
2023-03-30T13:35:05.938Z,100630.97
2023-03-30T13:37:53.322Z,100633.09
2023-03-30T13:40:40.234Z,100632.22
2023-03-30T13:43:35.903Z,100628.97
2023-03-30T13:46:29.364Z,100619.78
2023-03-30T13:49:16.161Z,100623.97
2023-03-30T13:51:44.212Z,100614.25
2023-03-30T13:54:17.784Z,100605.88
2023-03-30T13:56:48.955Z,100604.41
2023-03-30T13:59:20.152Z,100600.53
2023-03-30T14:01:54.118Z,100606.69
2023-03-30T14:04:22.152Z,100611.69
2023-03-30T14:06:50.440Z,100609.22
2023-03-30T14:09:23.498Z,100593.03
2023-03-30T14:11:51.428Z,100608.03
2023-03-30T14:14:24.541Z,100611.56
2023-03-30T14:16:52.089Z,100611.31
2023-03-30T14:19:26.574Z,100611.84
2023-03-30T14:21:58.483Z,100612.00
2023-03-30T14:24:31.751Z,100609.41
2023-03-30T14:27:05.681Z,100601.75
2023-03-30T14:29:33.149Z,100600.34
2023-03-30T14:34:33.582Z,100595.91
2023-03-30T14:37:06.957Z,100597.50
2023-03-30T14:39:40.241Z,100604.88
2023-03-30T14:42:17.880Z,100595.84
2023-03-30T14:44:48.344Z,100585.50
2023-03-30T14:47:18.647Z,100588.88
2023-03-30T14:49:47.600Z,100612.72
2023-03-30T14:52:20.359Z,100620.56
2023-03-30T14:55:02.502Z,100617.59
2023-03-30T14:57:38.026Z,100619.22
2023-03-30T15:00:17.535Z,100605.19
2023-03-30T15:02:45.987Z,100599.31
2023-03-30T15:05:16.794Z,100582.75
2023-03-30T15:07:48.961Z,100592.31
2023-03-30T15:10:43.205Z,100584.72
2023-03-30T15:13:19.421Z,100576.88
2023-03-30T15:15:46.754Z,100583.28
2023-03-30T15:18:21.455Z,100578.50
2023-03-30T15:20:48.906Z,100573.56
2023-03-30T15:23:16.587Z,100571.44
2023-03-30T15:25:44.455Z,100560.00
2023-03-30T15:28:19.511Z,100554.66
2023-03-30T15:30:54.665Z,100559.56
2023-03-30T15:33:32.013Z,100540.19
2023-03-30T15:36:06.201Z,100531.47
2023-03-30T15:38:36.432Z,100531.81
2023-03-30T15:41:08.235Z,100519.34
2023-03-30T15:43:36.700Z,100519.44
2023-03-30T15:46:10.932Z,100521.16
2023-03-30T15:48:38.644Z,100516.75
2023-03-30T15:51:33.891Z,100510.38
2023-03-30T15:54:15.807Z,100507.81
2023-03-30T15:57:02.068Z,100506.69
2023-03-30T15:59:43.720Z,100506.44
2023-03-30T16:02:35.853Z,100503.09
2023-03-30T16:05:05.848Z,100506.69
2023-03-30T16:07:35.786Z,100511.06
2023-03-30T16:10:04.446Z,100505.09
2023-03-30T16:12:31.968Z,100508.47
2023-03-30T16:14:59.215Z,100513.78
2023-03-30T16:17:27.577Z,100494.03
2023-03-30T16:19:55.027Z,100499.41
2023-03-30T16:22:22.948Z,100497.16
2023-03-30T16:24:51.009Z,100496.97
2023-03-30T16:27:18.354Z,100497.06
2023-03-30T16:29:45.619Z,100496.94
2023-03-30T16:32:12.816Z,100497.53
2023-03-30T16:34:43.025Z,100497.53
2023-03-30T16:37:11.234Z,100499.91
2023-03-30T16:39:38.593Z,100500.19
2023-03-30T16:42:05.872Z,100488.56
2023-03-30T16:44:33.169Z,100488.44
2023-03-30T16:47:00.434Z,100495.19
2023-03-30T16:49:27.711Z,100497.47
2023-03-30T16:51:57.939Z,100495.34
2023-03-30T16:54:31.870Z,100503.75
2023-03-30T16:57:01.158Z,100503.16
2023-03-30T16:59:30.636Z,100496.13
2023-03-30T17:01:59.366Z,100495.63
2023-03-30T17:04:26.815Z,100489.69
2023-03-30T17:06:54.840Z,100483.09
2023-03-30T17:09:22.418Z,100488.31
2023-03-30T17:11:50.514Z,100494.41
2023-03-30T17:14:18.096Z,100502.16
2023-03-30T17:16:45.496Z,100496.81
2023-03-30T17:19:13.617Z,100484.72
2023-03-30T17:21:43.407Z,100494.03
2023-03-30T17:24:11.323Z,100486.59
2023-03-30T17:26:39.500Z,100479.81
2023-03-30T17:29:06.890Z,100476.13
2023-03-30T17:31:34.328Z,100475.47
2023-03-30T17:34:01.685Z,100473.84
2023-03-30T17:36:29.084Z,100466.81
2023-03-30T17:38:56.716Z,100461.94
2023-03-30T17:41:24.085Z,100457.75
2023-03-30T17:43:51.894Z,100464.63
2023-03-30T17:46:19.959Z,100457.63
2023-03-30T17:48:47.633Z,100466.63
2023-03-30T17:51:14.919Z,100463.22
2023-03-30T17:53:42.824Z,100461.06
2023-03-30T17:56:13.355Z,100461.75
2023-03-30T17:58:40.888Z,100456.94
2023-03-30T18:01:09.546Z,100464.53
2023-03-30T18:03:39.240Z,100455.91
2023-03-30T18:06:07.241Z,100466.75
2023-03-30T18:08:36.033Z,100472.25
2023-03-30T18:11:04.323Z,100470.13
2023-03-30T18:13:32.404Z,100463.47
2023-03-30T18:16:00.930Z,100460.25
2023-03-30T18:18:30.245Z,100451.25
2023-03-30T18:21:06.509Z,100452.25
2023-03-30T18:23:34.864Z,100454.59
2023-03-30T18:26:08.274Z,100451.53
2023-03-30T18:28:40.610Z,100459.38
2023-03-30T18:31:08.817Z,100452.44
2023-03-30T18:33:36.284Z,100454.97
2023-03-30T18:36:07.654Z,100449.50
2023-03-30T18:38:35.499Z,100445.75
2023-03-30T18:41:03.148Z,100446.78
2023-03-30T18:43:30.839Z,100435.97
2023-03-30T18:46:01.681Z,100425.88
2023-03-30T18:48:29.863Z,100426.72
2023-03-30T18:50:57.591Z,100431.94
2023-03-30T18:53:28.753Z,100434.50
2023-03-30T18:55:58.800Z,100434.75
2023-03-30T18:58:31.376Z,100432.59
2023-03-30T19:00:59.805Z,100430.47
2023-03-30T19:03:28.339Z,100433.38
2023-03-30T19:05:56.024Z,100429.03
2023-03-30T19:08:24.779Z,100428.38
2023-03-30T19:10:55.033Z,100428.09
2023-03-30T19:13:23.097Z,100438.38
2023-03-30T19:15:51.569Z,100436.59
2023-03-30T19:18:19.193Z,100429.91
2023-03-30T19:20:46.680Z,100432.34
2023-03-30T19:23:15.663Z,100428.28
2023-03-30T19:25:43.977Z,100420.25
2023-03-30T19:28:12.136Z,100418.47
2023-03-30T19:30:40.390Z,100417.53
2023-03-30T19:33:12.344Z,100406.59
2023-03-30T19:35:41.154Z,100407.91
2023-03-30T19:38:11.581Z,100410.44
2023-03-30T19:40:39.810Z,100410.78
2023-03-30T19:43:07.745Z,100404.50
2023-03-30T19:45:35.042Z,100402.69
2023-03-30T19:48:02.397Z,100411.94
2023-03-30T19:50:30.619Z,100411.16
2023-03-30T19:52:59.425Z,100412.78
2023-03-30T19:55:27.268Z,100410.13
2023-03-30T19:57:54.724Z,100406.81
2023-03-30T20:00:22.060Z,100416.19
2023-03-30T20:02:52.144Z,100410.38
2023-03-30T20:05:20.750Z,100414.13
2023-03-30T20:07:48.854Z,100422.75
2023-03-30T20:10:22.113Z,100417.19
2023-03-30T20:12:50.459Z,100416.84
2023-03-30T20:15:19.209Z,100414.59
2023-03-30T20:17:46.684Z,100427.50
2023-03-30T20:20:17.020Z,100424.72
2023-03-30T20:22:45.910Z,100420.94
2023-03-30T20:25:14.250Z,100421.66
2023-03-30T20:27:41.858Z,100417.56
2023-03-30T20:30:09.820Z,100411.53
2023-03-30T20:32:37.370Z,100408.56
2023-03-30T20:35:06.401Z,100418.25
2023-03-30T20:37:34.123Z,100419.25
2023-03-30T20:40:05.037Z,100429.53
2023-03-30T20:42:32.811Z,100426.75
2023-03-30T20:45:01.187Z,100405.53
2023-03-30T20:47:31.063Z,100422.56
2023-03-30T20:49:59.933Z,100416.88
2023-03-30T20:52:28.004Z,100419.41
2023-03-30T20:54:56.332Z,100413.28
2023-03-30T20:57:24.349Z,100407.22
2023-03-30T20:59:53.459Z,100409.94
2023-03-30T21:02:20.911Z,100405.84
2023-03-30T21:04:50.280Z,100401.69
2023-03-30T21:07:18.075Z,100395.88
2023-03-30T21:09:45.865Z,100392.38
2023-03-30T21:12:13.179Z,100385.75
2023-03-30T21:14:40.546Z,100386.56
2023-03-30T21:17:08.151Z,100388.03
2023-03-30T21:19:36.685Z,100382.84
2023-03-30T21:22:04.006Z,100370.13
2023-03-30T21:24:31.254Z,100371.91
2023-03-30T21:26:58.468Z,100366.91
2023-03-30T21:29:25.915Z,100347.44
2023-03-30T21:31:53.228Z,100355.19
2023-03-30T21:34:22.134Z,100336.69
2023-03-30T21:36:49.475Z,100315.28
2023-03-30T21:39:16.784Z,100304.72
2023-03-30T21:41:45.252Z,100304.81
2023-03-30T21:44:12.562Z,100294.88
2023-03-30T21:46:39.848Z,100288.25
2023-03-30T21:49:07.345Z,100278.66
2023-03-30T21:51:34.526Z,100275.91
2023-03-30T21:54:02.003Z,100276.81
2023-03-30T21:56:30.507Z,100260.78
2023-03-30T21:58:58.640Z,100259.75
2023-03-30T22:01:26.581Z,100258.03
2023-03-30T22:03:55.082Z,100254.59
2023-03-30T22:06:22.997Z,100243.16
2023-03-30T22:08:50.705Z,100248.81
2023-03-30T22:11:27.529Z,100232.53
2023-03-30T22:13:55.542Z,100232.78
2023-03-30T22:16:25.915Z,100220.78
2023-03-30T22:18:53.282Z,100214.09
2023-03-30T22:21:24.146Z,100212.78
2023-03-30T22:23:52.501Z,100221.69
2023-03-30T22:26:19.856Z,100207.53
2023-03-30T22:28:47.093Z,100197.16
2023-03-30T22:31:15.575Z,100189.41
2023-03-30T22:33:43.551Z,100182.13
2023-03-30T22:36:16.692Z,100180.84
2023-03-30T22:38:44.119Z,100167.00
2023-03-30T22:41:11.608Z,100169.44
2023-03-30T22:43:40.447Z,100153.53
2023-03-30T22:46:11.857Z,100147.00
2023-03-30T22:48:41.647Z,100141.94
2023-03-30T22:51:09.230Z,100135.00
2023-03-30T22:53:38.208Z,100139.03
2023-03-30T22:56:06.315Z,100131.09
2023-03-30T22:58:35.987Z,100125.56
2023-03-30T23:01:07.040Z,100115.75
2023-03-30T23:03:34.622Z,100104.97
2023-03-30T23:06:02.331Z,100090.22
2023-03-30T23:08:30.347Z,100088.50
2023-03-30T23:11:03.784Z,100082.81
2023-03-30T23:13:31.637Z,100063.53
2023-03-30T23:15:59.673Z,100024.13
2023-03-30T23:18:27.121Z,99993.78
2023-03-30T23:20:55.681Z,100025.03
2023-03-30T23:23:23.102Z,100001.41
2023-03-30T23:25:51.536Z,100013.56
2023-03-30T23:28:19.232Z,100019.78
2023-03-30T23:30:46.526Z,100028.63
2023-03-30T23:33:13.903Z,100020.00
2023-03-30T23:35:48.515Z,100018.09
2023-03-30T23:38:15.866Z,100015.09
2023-03-30T23:40:43.709Z,99997.28
2023-03-30T23:43:11.626Z,99985.19
2023-03-30T23:45:38.861Z,99983.22
2023-03-30T23:48:06.519Z,99981.47
2023-03-30T23:50:36.238Z,99981.97
2023-03-30T23:53:03.686Z,99989.84
2023-03-30T23:55:31.070Z,99990.69
2023-03-30T23:57:58.274Z,99985.28
